Terminal Aerodrome Forecast
Issued by NWS

Current Version | Previous Version | Graphics & Text | Print | Product List | Glossary On
Versions: 1 2 3 4 5 6 7 8 9 10 11 12 13 14 15 16 17 18 19
801
FTUS41 KPBZ 111728
TAFMGW
TAF
KMGW 111728Z 1118/1218 27010KT P6SM -SHSN BKN025
     FM120400 VRB04KT P6SM SCT250=

USA.gov is the U.S. government's official web portal to all federal, state and local government web resources and services.